createdAt,value
2017-08-21T00:00:41.253Z,96.99
2017-08-21T00:03:09.076Z,97.00
2017-08-21T00:05:36.885Z,97.06
2017-08-21T00:08:04.669Z,97.07
2017-08-21T00:10:32.449Z,97.05
2017-08-21T00:13:00.286Z,97.08
2017-08-21T00:15:28.056Z,97.06
2017-08-21T00:17:55.864Z,97.08
2017-08-21T00:20:23.660Z,97.12
2017-08-21T00:22:51.474Z,97.22
2017-08-21T00:25:19.261Z,97.26
2017-08-21T00:27:47.081Z,97.24
2017-08-21T00:30:14.892Z,97.24
2017-08-21T00:32:42.727Z,97.19
2017-08-21T00:35:10.511Z,97.15
2017-08-21T00:37:38.317Z,97.12
2017-08-21T00:40:06.153Z,97.11
2017-08-21T00:42:34.904Z,97.06
2017-08-21T00:45:02.776Z,97.01
2017-08-21T00:47:30.553Z,96.93
2017-08-21T00:49:58.401Z,96.83
2017-08-21T00:52:26.180Z,96.78
2017-08-21T00:54:54.016Z,96.77
2017-08-21T00:57:21.774Z,96.75
2017-08-21T00:59:49.622Z,96.72
2017-08-21T01:02:17.405Z,96.66
2017-08-21T01:04:45.168Z,96.61
2017-08-21T01:07:12.931Z,96.61
2017-08-21T01:09:40.769Z,96.54
2017-08-21T01:12:08.888Z,96.46
2017-08-21T01:14:36.653Z,96.44
2017-08-21T01:17:04.512Z,96.44
2017-08-21T01:19:32.305Z,96.49
2017-08-21T01:22:00.145Z,96.49
2017-08-21T01:24:27.897Z,96.41
2017-08-21T01:26:55.734Z,96.38
2017-08-21T01:29:23.549Z,96.42
2017-08-21T01:31:51.395Z,96.53
2017-08-21T01:34:19.166Z,96.58
2017-08-21T01:36:47.032Z,96.57
2017-08-21T01:39:14.801Z,96.56
2017-08-21T01:41:42.617Z,96.59
2017-08-21T01:44:10.388Z,96.58
2017-08-21T01:46:38.217Z,96.58
2017-08-21T01:49:05.992Z,96.61
2017-08-21T01:51:33.818Z,96.64
2017-08-21T01:54:01.584Z,96.66
2017-08-21T01:56:29.363Z,96.70
2017-08-21T01:58:57.217Z,96.67
2017-08-21T02:01:24.983Z,96.69
2017-08-21T02:03:52.795Z,96.75
2017-08-21T02:06:20.577Z,96.83
2017-08-21T02:08:48.413Z,96.83
2017-08-21T02:11:16.281Z,96.94
2017-08-21T02:13:44.064Z,96.92
2017-08-21T02:16:11.844Z,96.87
2017-08-21T02:18:39.669Z,96.91
2017-08-21T02:21:07.384Z,96.92
2017-08-21T02:23:35.237Z,96.96
2017-08-21T02:26:03.025Z,96.94
2017-08-21T02:28:30.865Z,97.01
2017-08-21T02:30:58.677Z,97.08
2017-08-21T02:33:26.461Z,97.10
2017-08-21T02:35:54.307Z,97.08
2017-08-21T02:38:33.885Z,97.13
2017-08-21T02:41:01.711Z,97.14
2017-08-21T02:43:29.492Z,97.08
2017-08-21T02:45:57.321Z,96.99
2017-08-21T02:48:25.036Z,96.98
2017-08-21T02:50:52.912Z,96.99
2017-08-21T02:53:20.716Z,96.99
2017-08-21T02:55:48.538Z,96.93
2017-08-21T02:58:16.335Z,96.87
2017-08-21T03:00:44.625Z,96.87
2017-08-21T03:03:12.397Z,96.77
2017-08-21T03:05:40.218Z,96.65
2017-08-21T03:08:08.001Z,96.53
2017-08-21T03:10:35.820Z,96.52
2017-08-21T03:13:03.620Z,96.54
2017-08-21T03:15:31.472Z,96.47
2017-08-21T03:17:59.260Z,96.46
2017-08-21T03:20:27.027Z,96.49
2017-08-21T03:22:54.856Z,96.53
2017-08-21T03:25:22.649Z,96.52
2017-08-21T03:27:50.475Z,96.54
2017-08-21T03:30:18.342Z,96.46
2017-08-21T03:32:46.108Z,96.38
2017-08-21T03:35:13.947Z,96.38
2017-08-21T03:37:41.781Z,96.39
2017-08-21T03:40:09.548Z,96.44
2017-08-21T03:42:37.384Z,96.45
2017-08-21T03:45:05.174Z,96.49
2017-08-21T03:47:33.028Z,96.50
2017-08-21T03:50:00.803Z,96.47
2017-08-21T03:52:28.590Z,96.51
2017-08-21T03:54:56.393Z,96.59
2017-08-21T03:57:24.180Z,96.60
2017-08-21T03:59:51.999Z,96.61
2017-08-21T04:02:19.799Z,96.62
2017-08-21T04:04:47.632Z,96.61
2017-08-21T04:07:15.409Z,96.64
2017-08-21T04:09:43.233Z,96.67
2017-08-21T04:12:11.029Z,96.74
2017-08-21T04:14:38.874Z,96.76
2017-08-21T04:17:06.667Z,96.76
2017-08-21T04:19:34.509Z,96.81
2017-08-21T04:22:02.315Z,96.81
2017-08-21T04:24:30.088Z,96.79
2017-08-21T04:26:57.905Z,96.73
2017-08-21T04:29:25.765Z,96.68
2017-08-21T04:31:53.777Z,96.65
2017-08-21T04:34:21.553Z,96.63
2017-08-21T04:36:49.409Z,96.60
2017-08-21T04:39:17.178Z,96.55
2017-08-21T04:41:45.005Z,96.42
2017-08-21T04:44:12.782Z,96.23
2017-08-21T04:46:40.607Z,96.12
2017-08-21T04:49:08.343Z,96.10
2017-08-21T04:51:36.164Z,96.02
2017-08-21T04:54:03.943Z,95.82
2017-08-21T04:56:31.760Z,95.72
2017-08-21T04:58:59.550Z,95.75
2017-08-21T05:01:27.343Z,95.69
2017-08-21T05:03:55.186Z,95.62
2017-08-21T05:06:22.968Z,95.56
2017-08-21T05:08:50.791Z,95.49
2017-08-21T05:11:18.591Z,95.37
2017-08-21T05:13:46.429Z,95.19
2017-08-21T05:16:14.128Z,95.03
2017-08-21T05:18:41.971Z,93.79
2017-08-21T05:21:09.754Z,92.77
2017-08-21T05:23:37.572Z,92.70
2017-08-21T05:26:05.354Z,92.89
2017-08-21T05:28:33.110Z,93.46
2017-08-21T05:31:00.939Z,93.76
2017-08-21T05:33:28.787Z,94.04
2017-08-21T05:35:56.573Z,94.10
2017-08-21T05:38:24.377Z,94.16
2017-08-21T05:40:52.205Z,94.25
2017-08-21T05:43:19.969Z,94.26
2017-08-21T05:45:47.800Z,94.36
2017-08-21T05:48:15.587Z,94.32
2017-08-21T05:50:43.393Z,94.15
2017-08-21T05:53:11.482Z,94.13
2017-08-21T05:55:39.303Z,93.85
2017-08-21T05:58:07.068Z,93.24
2017-08-21T06:00:34.902Z,93.41
2017-08-21T06:03:02.698Z,93.00
2017-08-21T06:05:30.536Z,92.85
2017-08-21T06:07:58.256Z,93.08
2017-08-21T06:10:26.083Z,93.09
2017-08-21T06:12:53.902Z,93.28
2017-08-21T06:15:21.869Z,93.07
2017-08-21T06:17:49.656Z,92.98
2017-08-21T06:20:17.433Z,92.80
2017-08-21T06:22:45.259Z,92.99
2017-08-21T06:25:13.054Z,93.01
2017-08-21T06:27:40.902Z,92.57
2017-08-21T06:30:08.741Z,92.53
2017-08-21T06:32:36.563Z,92.76
2017-08-21T06:35:04.361Z,93.01
2017-08-21T06:37:32.219Z,92.89
2017-08-21T06:40:00.005Z,92.36
2017-08-21T06:42:27.834Z,91.99
2017-08-21T06:44:55.648Z,91.34
2017-08-21T06:47:23.347Z,91.15
2017-08-21T06:49:51.079Z,91.70
2017-08-21T06:52:18.773Z,91.61
2017-08-21T06:54:46.528Z,91.02
2017-08-21T06:57:14.227Z,90.75
2017-08-21T06:59:42.024Z,89.35
2017-08-21T07:02:09.720Z,88.76
2017-08-21T07:04:37.476Z,88.25
2017-08-21T07:07:05.207Z,88.98
2017-08-21T07:09:32.961Z,88.13
2017-08-21T07:12:00.704Z,88.46
2017-08-21T07:14:28.460Z,86.80
2017-08-21T07:16:56.153Z,87.85
2017-08-21T07:19:23.863Z,87.37
2017-08-21T07:21:51.609Z,87.33
2017-08-21T07:24:19.315Z,86.49
2017-08-21T07:26:47.095Z,87.19
2017-08-21T07:29:14.806Z,85.47
2017-08-21T07:31:42.561Z,84.16
2017-08-21T07:34:10.274Z,84.52
2017-08-21T07:36:38.035Z,84.46
2017-08-21T07:39:05.755Z,84.55
2017-08-21T07:41:33.537Z,83.05
2017-08-21T07:44:01.241Z,81.92
2017-08-21T07:46:28.996Z,82.46
2017-08-21T07:48:56.744Z,83.10
2017-08-21T07:51:24.501Z,81.34
2017-08-21T07:53:52.219Z,81.85
2017-08-21T07:56:19.985Z,80.73
2017-08-21T07:58:47.676Z,80.31
2017-08-21T08:01:15.391Z,80.15
2017-08-21T08:03:43.129Z,81.10
2017-08-21T08:06:10.845Z,81.34
2017-08-21T08:08:38.644Z,79.83
2017-08-21T08:11:06.349Z,81.65
2017-08-21T08:13:34.100Z,81.05
2017-08-21T08:16:01.959Z,80.20
2017-08-21T08:18:29.719Z,80.98
2017-08-21T08:20:57.454Z,79.03
2017-08-21T08:23:25.218Z,80.04
2017-08-21T08:25:52.944Z,80.89
2017-08-21T08:28:20.709Z,79.70
2017-08-21T08:30:48.726Z,79.38
2017-08-21T08:33:16.486Z,78.88
2017-08-21T08:35:44.202Z,79.74
2017-08-21T08:38:11.977Z,80.72
2017-08-21T08:40:39.718Z,80.57
2017-08-21T08:43:07.471Z,80.70
2017-08-21T08:45:35.218Z,81.48
2017-08-21T08:48:02.956Z,81.48
2017-08-21T08:50:30.776Z,81.53
2017-08-21T08:52:58.566Z,79.77
2017-08-21T08:55:26.330Z,80.45
2017-08-21T08:57:54.083Z,80.22
2017-08-21T09:00:21.988Z,78.75
2017-08-21T09:02:49.792Z,77.57
2017-08-21T09:05:17.671Z,79.29
2017-08-21T09:07:45.430Z,78.53
2017-08-21T09:10:13.211Z,78.23
2017-08-21T09:12:41.002Z,78.54
2017-08-21T09:15:08.859Z,78.19
2017-08-21T09:17:36.752Z,77.86
2017-08-21T09:20:04.468Z,77.65
2017-08-21T09:22:32.270Z,78.12
2017-08-21T09:25:00.007Z,76.12
2017-08-21T09:27:27.772Z,76.05
2017-08-21T09:29:55.512Z,75.96
2017-08-21T09:32:23.296Z,77.25
2017-08-21T09:34:51.058Z,77.94
2017-08-21T09:37:18.807Z,79.23
2017-08-21T09:39:46.585Z,81.08
2017-08-21T09:42:14.402Z,83.70
2017-08-21T09:44:42.132Z,85.61
2017-08-21T09:47:09.889Z,86.95
2017-08-21T09:49:37.625Z,87.15
2017-08-21T09:52:05.383Z,86.83
2017-08-21T09:54:33.153Z,86.73
2017-08-21T09:57:00.841Z,85.90
2017-08-21T09:59:28.614Z,85.87
2017-08-21T10:02:28.798Z,84.38
2017-08-21T10:04:56.595Z,82.49
2017-08-21T10:07:24.316Z,81.21
2017-08-21T10:09:52.120Z,79.67
2017-08-21T10:12:19.877Z,78.48
2017-08-21T10:14:47.653Z,76.24
2017-08-21T10:17:15.437Z,78.20
2017-08-21T10:19:43.280Z,75.57
2017-08-21T10:22:11.013Z,79.31
2017-08-21T10:24:38.784Z,80.57
2017-08-21T10:27:06.515Z,82.74
2017-08-21T10:29:34.373Z,83.32
2017-08-21T10:32:02.139Z,83.36
2017-08-21T10:34:30.643Z,83.08
2017-08-21T10:37:01.870Z,81.49
2017-08-21T10:39:29.762Z,79.40
2017-08-21T10:41:57.587Z,77.71
2017-08-21T10:44:25.326Z,76.46
2017-08-21T10:46:53.135Z,76.18
2017-08-21T10:49:20.901Z,75.58
2017-08-21T10:51:48.643Z,75.42
2017-08-21T10:54:16.356Z,75.48
2017-08-21T10:56:44.149Z,75.08
2017-08-21T10:59:11.857Z,76.41
2017-08-21T11:01:39.632Z,76.73
2017-08-21T11:04:07.373Z,77.64
2017-08-21T11:06:35.242Z,77.70
2017-08-21T11:09:02.952Z,78.97
2017-08-21T11:11:30.831Z,79.33
2017-08-21T11:13:58.663Z,79.05
2017-08-21T11:16:26.521Z,78.64
2017-08-21T11:18:54.311Z,78.98
2017-08-21T11:21:22.215Z,77.79
2017-08-21T11:23:50.030Z,78.94
2017-08-21T11:26:17.770Z,79.22
2017-08-21T11:28:45.647Z,77.29
2017-08-21T11:31:13.489Z,76.44
2017-08-21T11:33:41.328Z,76.84
2017-08-21T11:36:09.154Z,76.33
2017-08-21T11:38:37.054Z,74.14
2017-08-21T11:41:04.920Z,74.54
2017-08-21T11:43:32.828Z,74.84
2017-08-21T11:46:00.714Z,74.83
2017-08-21T11:48:28.595Z,75.09
2017-08-21T11:50:56.411Z,74.05
2017-08-21T11:53:24.300Z,73.47
2017-08-21T11:55:52.107Z,72.11
2017-08-21T11:58:19.933Z,71.52
2017-08-21T12:00:47.839Z,71.28
2017-08-21T12:03:15.668Z,74.12
2017-08-21T12:05:43.547Z,75.37
2017-08-21T12:08:11.535Z,78.86
2017-08-21T12:10:39.410Z,79.23
2017-08-21T12:13:07.183Z,76.57
2017-08-21T12:15:35.048Z,76.14
2017-08-21T12:18:02.918Z,75.34
2017-08-21T12:20:30.817Z,76.21
2017-08-21T12:22:58.628Z,75.64
2017-08-21T12:25:26.527Z,75.93
2017-08-21T12:27:54.366Z,73.83
2017-08-21T12:30:22.346Z,72.83
2017-08-21T12:32:50.232Z,71.92
2017-08-21T12:35:18.080Z,72.87
2017-08-21T12:37:45.868Z,70.78
2017-08-21T12:40:13.731Z,69.43
2017-08-21T12:42:41.632Z,66.89
2017-08-21T12:45:09.513Z,68.34
2017-08-21T12:47:37.417Z,69.19
2017-08-21T12:50:05.183Z,68.46
2017-08-21T12:52:33.066Z,68.25
2017-08-21T12:55:00.824Z,70.28
2017-08-21T12:57:28.635Z,69.66
2017-08-21T12:59:56.465Z,68.00
2017-08-21T13:02:24.288Z,69.23
2017-08-21T13:04:52.181Z,69.08
2017-08-21T13:07:19.986Z,68.87
2017-08-21T13:09:48.026Z,67.54
2017-08-21T13:12:15.841Z,66.29
2017-08-21T13:14:43.696Z,65.52
2017-08-21T13:17:11.552Z,64.55
2017-08-21T13:19:39.404Z,65.27
2017-08-21T13:22:07.152Z,64.11
2017-08-21T13:24:34.932Z,65.98
2017-08-21T13:27:02.779Z,64.81
2017-08-21T13:29:30.789Z,67.04
2017-08-21T13:31:58.596Z,69.59
2017-08-21T13:34:26.414Z,70.19
2017-08-21T13:36:54.282Z,68.65
2017-08-21T13:39:21.996Z,70.55
2017-08-21T13:41:49.905Z,69.65
2017-08-21T13:44:17.730Z,70.39
2017-08-21T13:46:45.606Z,71.93
2017-08-21T13:49:13.451Z,76.56
2017-08-21T13:51:41.307Z,80.56
2017-08-21T13:54:09.118Z,81.52
2017-08-21T13:56:36.974Z,82.43
2017-08-21T13:59:04.763Z,82.48
2017-08-21T14:01:32.607Z,81.73
2017-08-21T14:04:00.424Z,82.91
2017-08-21T14:06:28.385Z,80.02
2017-08-21T14:08:56.206Z,78.99
2017-08-21T14:11:24.000Z,77.77
2017-08-21T14:13:51.863Z,77.35
2017-08-21T14:16:19.650Z,76.49
2017-08-21T14:18:47.521Z,75.23
2017-08-21T14:21:15.337Z,75.61
2017-08-21T14:23:43.118Z,74.92
2017-08-21T14:26:10.915Z,73.75
2017-08-21T14:28:38.799Z,72.99
2017-08-21T14:31:06.642Z,73.97
2017-08-21T14:33:34.503Z,74.07
2017-08-21T14:36:02.321Z,74.63
2017-08-21T14:38:30.171Z,71.98
2017-08-21T14:40:57.913Z,70.63
2017-08-21T14:43:25.786Z,69.00
2017-08-21T14:45:53.621Z,68.01
2017-08-21T14:48:21.505Z,67.73
2017-08-21T14:50:49.255Z,66.90
2017-08-21T14:53:16.986Z,68.39
2017-08-21T14:55:44.912Z,66.97
2017-08-21T14:58:12.749Z,67.14
2017-08-21T15:00:40.597Z,68.10
2017-08-21T15:03:08.413Z,65.05
2017-08-21T15:05:36.257Z,66.23
2017-08-21T15:08:04.000Z,66.36
2017-08-21T15:10:31.863Z,66.86
2017-08-21T15:12:59.705Z,66.41
2017-08-21T15:15:27.641Z,64.55
2017-08-21T15:17:55.453Z,66.12
2017-08-21T15:20:23.248Z,63.05
2017-08-21T15:22:51.043Z,62.13
2017-08-21T15:25:18.833Z,63.43
2017-08-21T15:27:46.705Z,63.50
2017-08-21T15:30:14.555Z,62.44
2017-08-21T15:32:42.329Z,62.79
2017-08-21T15:35:10.120Z,62.38
2017-08-21T15:37:38.002Z,63.34
2017-08-21T15:40:05.784Z,62.66
2017-08-21T15:42:33.649Z,63.60
2017-08-21T15:45:01.466Z,62.69
2017-08-21T15:47:29.337Z,60.62
2017-08-21T15:49:57.151Z,62.21
2017-08-21T15:52:24.992Z,60.87
2017-08-21T15:54:52.780Z,59.32
2017-08-21T15:57:21.862Z,60.23
2017-08-21T15:59:49.724Z,58.84
2017-08-21T16:02:17.540Z,60.23
2017-08-21T16:04:45.411Z,60.70
2017-08-21T16:07:13.207Z,61.11
2017-08-21T16:09:41.077Z,61.58
2017-08-21T16:12:08.891Z,61.59
2017-08-21T16:14:36.744Z,61.38
2017-08-21T16:17:04.550Z,62.79
2017-08-21T16:19:32.404Z,63.27
2017-08-21T16:22:00.671Z,64.62
2017-08-21T16:24:29.038Z,64.38
2017-08-21T16:26:56.818Z,64.03
2017-08-21T16:29:24.728Z,65.26
2017-08-21T16:31:52.543Z,64.66
2017-08-21T16:34:20.303Z,65.78
2017-08-21T16:36:48.116Z,66.10
2017-08-21T16:39:16.009Z,65.39
2017-08-21T16:41:43.825Z,65.43
2017-08-21T16:44:11.557Z,65.70
2017-08-21T16:46:39.344Z,65.65
2017-08-21T16:49:07.258Z,65.28
2017-08-21T16:51:35.010Z,65.83
2017-08-21T16:54:02.719Z,66.75
2017-08-21T16:56:30.571Z,67.40
2017-08-21T16:58:58.383Z,69.26
2017-08-21T17:01:26.221Z,68.62
2017-08-21T17:03:54.057Z,69.17
2017-08-21T17:06:21.909Z,69.72
2017-08-21T17:08:49.712Z,69.67
2017-08-21T17:11:17.585Z,69.68
2017-08-21T17:13:45.537Z,68.97
2017-08-21T17:16:13.348Z,69.40
2017-08-21T17:18:41.339Z,68.86
2017-08-21T17:21:09.075Z,68.53
2017-08-21T17:23:36.979Z,69.17
2017-08-21T17:26:04.769Z,69.16
2017-08-21T17:28:32.590Z,69.49
2017-08-21T17:31:00.341Z,69.30
2017-08-21T17:33:28.176Z,69.63
2017-08-21T17:35:55.988Z,68.72
2017-08-21T17:38:23.822Z,69.04
2017-08-21T17:40:51.625Z,68.64
2017-08-21T17:43:19.473Z,68.92
2017-08-21T17:45:47.280Z,69.28
2017-08-21T17:48:15.174Z,69.43
2017-08-21T17:50:42.979Z,70.04
2017-08-21T17:53:10.788Z,70.41
2017-08-21T17:55:38.651Z,70.82
2017-08-21T17:58:06.463Z,71.16
2017-08-21T18:00:34.217Z,71.72
2017-08-21T18:03:01.932Z,72.20
2017-08-21T18:05:29.692Z,72.35
2017-08-21T18:07:57.409Z,72.25
2017-08-21T18:10:25.171Z,72.83
2017-08-21T18:12:52.915Z,73.33
2017-08-21T18:15:20.677Z,74.04
2017-08-21T18:17:48.385Z,75.15
2017-08-21T18:20:16.170Z,76.05
2017-08-21T18:22:43.883Z,76.99
2017-08-21T18:25:11.671Z,77.36
2017-08-21T18:27:39.417Z,78.51
2017-08-21T18:30:07.367Z,79.28
2017-08-21T18:32:35.207Z,79.62
2017-08-21T18:35:03.110Z,80.38
2017-08-21T18:37:30.995Z,81.03
2017-08-21T18:39:58.800Z,81.22
2017-08-21T18:42:26.637Z,81.39
2017-08-21T18:44:54.444Z,81.54
2017-08-21T18:47:22.322Z,82.51
2017-08-21T18:49:50.131Z,82.76
2017-08-21T18:52:17.997Z,83.26
2017-08-21T18:54:45.789Z,83.41
2017-08-21T18:57:13.565Z,83.42
2017-08-21T18:59:41.344Z,83.46
2017-08-21T19:02:09.205Z,83.47
2017-08-21T19:04:37.015Z,83.59
2017-08-21T19:07:04.851Z,83.64
2017-08-21T19:09:32.657Z,83.73
2017-08-21T19:12:00.527Z,83.87
2017-08-21T19:14:28.340Z,84.08
2017-08-21T19:16:56.164Z,84.49
2017-08-21T19:19:24.080Z,84.98
2017-08-21T19:21:51.896Z,85.43
2017-08-21T19:24:19.753Z,85.82
2017-08-21T19:26:47.557Z,86.12
2017-08-21T19:29:15.409Z,86.50
2017-08-21T19:31:43.163Z,86.65
2017-08-21T19:34:11.060Z,86.64
2017-08-21T19:36:38.896Z,86.81
2017-08-21T19:39:06.744Z,87.24
2017-08-21T19:41:34.549Z,87.66
2017-08-21T19:44:02.417Z,87.53
2017-08-21T19:46:30.228Z,87.70
2017-08-21T19:48:58.081Z,88.18
2017-08-21T19:51:25.888Z,88.44
2017-08-21T19:53:53.744Z,88.49
2017-08-21T19:56:21.546Z,88.32
2017-08-21T19:58:49.380Z,88.29
2017-08-21T20:01:17.236Z,88.18
2017-08-21T20:03:44.969Z,88.40
2017-08-21T20:06:12.861Z,88.85
2017-08-21T20:08:40.681Z,89.28
2017-08-21T20:11:08.553Z,89.47
2017-08-21T20:13:36.406Z,89.43
2017-08-21T20:16:04.267Z,89.44
2017-08-21T20:18:32.108Z,89.57
2017-08-21T20:20:59.969Z,89.73
2017-08-21T20:23:27.780Z,89.69
2017-08-21T20:25:55.654Z,89.39
2017-08-21T20:28:23.486Z,89.46
2017-08-21T20:30:51.402Z,89.54
2017-08-21T20:33:19.203Z,89.95
2017-08-21T20:35:47.100Z,90.21
2017-08-21T20:38:14.909Z,90.34
2017-08-21T20:40:42.728Z,90.44
2017-08-21T20:43:10.482Z,90.12
2017-08-21T20:45:38.255Z,89.72
2017-08-21T20:48:06.037Z,89.46
2017-08-21T20:50:33.816Z,89.64
2017-08-21T20:53:01.553Z,89.62
2017-08-21T20:55:29.340Z,89.41
2017-08-21T20:57:57.070Z,89.49
2017-08-21T21:00:24.842Z,89.45
2017-08-21T21:02:52.677Z,89.66
2017-08-21T21:05:20.392Z,90.14
2017-08-21T21:07:48.241Z,90.76
2017-08-21T21:10:16.089Z,91.09
2017-08-21T21:12:43.912Z,91.04
2017-08-21T21:15:11.725Z,91.01
2017-08-21T21:17:39.589Z,90.98
2017-08-21T21:20:07.426Z,90.88
2017-08-21T21:22:35.289Z,90.92
2017-08-21T21:25:03.116Z,90.75
2017-08-21T21:27:30.985Z,90.58
2017-08-21T21:29:58.717Z,90.48
2017-08-21T21:32:26.578Z,90.48
2017-08-21T21:34:54.356Z,90.50
2017-08-21T21:37:22.096Z,90.52
2017-08-21T21:39:49.943Z,90.67
2017-08-21T21:42:17.744Z,90.77
2017-08-21T21:44:45.589Z,90.70
2017-08-21T21:47:13.402Z,90.74
2017-08-21T21:49:41.294Z,90.82
2017-08-21T21:52:09.085Z,90.82
2017-08-21T21:54:36.944Z,90.97
2017-08-21T21:57:04.731Z,91.19
2017-08-21T21:59:32.604Z,91.27
2017-08-21T22:02:00.389Z,91.34
2017-08-21T22:04:28.256Z,91.39
2017-08-21T22:06:56.055Z,91.55
2017-08-21T22:09:23.913Z,91.64
2017-08-21T22:11:51.725Z,91.66
2017-08-21T22:14:19.565Z,91.58
2017-08-21T22:16:47.389Z,91.63
2017-08-21T22:19:15.226Z,91.68
2017-08-21T22:21:43.098Z,91.82
2017-08-21T22:24:10.843Z,91.75
2017-08-21T22:26:38.690Z,91.74
2017-08-21T22:29:06.480Z,91.69
2017-08-21T22:31:34.364Z,91.62
2017-08-21T22:34:02.173Z,91.57
2017-08-21T22:36:30.021Z,91.63
2017-08-21T22:38:57.807Z,91.71
2017-08-21T22:41:25.673Z,91.65
2017-08-21T22:43:53.453Z,91.67
2017-08-21T22:46:21.310Z,91.76
2017-08-21T22:48:49.082Z,91.90
2017-08-21T22:51:16.967Z,92.11
2017-08-21T22:53:44.756Z,92.17
2017-08-21T22:56:12.535Z,92.24
2017-08-21T22:58:40.380Z,92.24
2017-08-21T23:01:25.704Z,92.17
2017-08-21T23:03:53.463Z,92.01
2017-08-21T23:06:21.158Z,91.86
2017-08-21T23:08:48.890Z,91.84
2017-08-21T23:11:16.670Z,91.68
2017-08-21T23:13:44.495Z,91.47
2017-08-21T23:16:12.296Z,91.36
2017-08-21T23:18:40.097Z,91.89
2017-08-21T23:21:07.874Z,92.16
2017-08-21T23:23:35.743Z,92.38
2017-08-21T23:26:03.565Z,92.33
2017-08-21T23:28:31.415Z,92.31
2017-08-21T23:30:59.252Z,92.08
2017-08-21T23:33:27.176Z,91.88
2017-08-21T23:35:54.970Z,91.84
2017-08-21T23:38:22.763Z,92.04
2017-08-21T23:40:50.590Z,92.23
2017-08-21T23:43:18.406Z,92.12
2017-08-21T23:45:46.227Z,91.66
2017-08-21T23:48:14.026Z,91.62
2017-08-21T23:50:41.879Z,91.43
2017-08-21T23:53:09.590Z,91.17
2017-08-21T23:55:37.425Z,91.36
2017-08-21T23:58:05.236Z,91.44
